Latest Weather Observations for Roseworthy

IDS60901

Issued at 8:01 am CDT Saturday 16 October 2021 (issued every 10 minutes, with the page automatically refreshed every 10 minutes)

About weather observations | Map of Adelaide area stations | Latest observations for Adelaide area | Other Formats
Station Details ID: 023122 Name: ROSEWORTHY AWS Lat: -34.51 Lon: 138.68 Height: 65.0 m
Data from the previous 72 hours. | See also: Recent months at Roseworthy
Date/Time
CDT
Temp
°C
App
Temp
°C
Dew
Point
°C
Rel
Hum
%
Delta-T
°C
Wind Press
QNH
hPa
Press
MSL
hPa
Rain since
9am
mm
Dir  Spd
km/h
Gust
km/h
Spd
kts
Gust
kts
16/08:00am 12.1 9.8 7.4 73 2.3 WSW 9 11 5 6 1017.0 1016.9 0.0
16/07:30am 11.7 9.0 7.2 74 2.2 SW 11 15 6 8 1016.6 1016.5 0.0
16/07:00am 11.6 8.5 7.3 75 2.1 WSW 13 17 7 9 1016.3 1016.2 0.0
16/06:30am 11.6 8.4 6.9 73 2.2 SW 13 17 7 9 1015.8 1015.7 0.0
16/06:00am 11.7 8.6 7.2 74 2.2 SW 13 17 7 9 1015.5 1015.4 0.0
16/05:30am 11.6 8.2 6.1 69 2.6 WSW 13 17 7 9 1015.4 1015.3 0.0
16/05:00am 11.7 9.1 7.8 77 1.9 SW 11 13 6 7 1015.3 1015.2 0.0
16/04:30am 11.8 8.9 8.1 78 1.8 SW 13 17 7 9 1015.2 1015.1 0.0
16/04:00am 11.9 7.7 8.4 79 1.7 SW 20 26 11 14 1015.2 1015.1 0.0
16/03:30am 11.8 8.8 7.5 75 2.1 SW 13 17 7 9 1015.2 1015.1 0.0
16/03:00am 11.5 8.5 7.8 78 1.8 WSW 13 19 7 10 1015.3 1015.2 0.0
16/02:30am 10.3 7.8 8.1 86 1.1 WSW 11 13 6 7 1015.4 1015.3 0.0
16/02:00am 9.4 6.6 7.0 85 1.1 SW 11 15 6 8 1015.6 1015.5 0.0
16/01:30am 10.7 7.6 7.2 79 1.7 SW 13 19 7 10 1015.6 1015.5 0.0
16/01:00am 12.0 8.4 8.5 79 1.7 SW 17 24 9 13 1015.5 1015.4 0.0
16/12:30am 12.0 8.5 8.8 81 1.6 SSW 17 22 9 12 1015.6 1015.5 0.0
16/12:00am 12.6 9.6 9.4 81 1.6 SW 15 22 8 12 1015.7 1015.6 0.0
 
Date/Time
CDT
Temp
°C
App
Temp
°C
Dew
Point
°C
Rel
Hum
%
Delta-T
°C
Wind Press
QNH
hPa
Press
MSL
hPa
Rain since
9am
mm
Dir  Spd
km/h
Gust
km/h
Spd
kts
Gust
kts
15/11:30pm 12.7 9.3 9.2 79 1.8 SW 17 22 9 12 1015.6 1015.5 0.0
15/11:00pm 11.9 10.1 9.3 84 1.3 SW 9 11 5 6 1015.6 1015.5 0.0
15/10:30pm 11.9 9.1 8.6 80 1.6 SW 13 20 7 11 1015.6 1015.5 0.0
15/10:00pm 13.0 9.5 8.9 76 2.1 SSW 17 28 9 15 1015.6 1015.5 0.0
15/09:30pm 13.1 9.6 8.8 75 2.2 SSW 17 24 9 13 1015.4 1015.3 0.0
15/09:00pm 13.1 9.6 8.8 75 2.2 SW 17 20 9 11 1015.2 1015.1 0.0
15/08:30pm 13.2 9.9 9.6 79 1.8 SW 17 24 9 13 1014.8 1014.7 0.0
15/08:00pm 13.1 9.7 9.2 77 2.0 SW 17 28 9 15 1014.4 1014.3 0.0
15/07:30pm 13.1 9.3 9.2 77 2.0 SW 19 24 10 13 1014.0 1013.9 0.0
15/07:00pm 13.5 8.7 9.0 74 2.3 SW 24 37 13 20 1013.6 1013.5 0.0
15/06:30pm 15.0 10.2 8.7 66 3.2 SW 24 35 13 19 1013.0 1013.0 0.0
15/06:00pm 15.5 9.7 8.0 61 3.8 SW 28 39 15 21 1012.8 1012.8 0.0
15/05:30pm 16.0 9.4 7.7 58 4.2 SW 32 39 17 21 1012.5 1012.5 0.0
15/05:00pm 16.0 9.6 8.5 61 3.8 SW 32 43 17 23 1012.3 1012.3 0.0
15/04:45pm 16.1 10.2 9.1 63 3.6 SW 30 48 16 26 1012.2 1012.2 0.0
15/04:30pm 15.5 9.9 10.3 71 2.7 SW 30 43 16 23 1012.2 1012.2 0.0
15/04:00pm 16.3 10.4 9.0 62 3.8 SW 30 41 16 22 1012.0 1012.0 0.0
15/03:30pm 17.4 11.2 9.3 59 4.2 SW 32 41 17 22 1011.9 1011.9 0.0
15/03:00pm 17.6 11.7 9.0 57 4.5 SW 30 37 16 20 1011.8 1011.8 0.0
15/02:30pm 17.4 11.3 8.3 55 4.7 SW 30 43 16 23 1011.9 1011.9 0.0
15/02:00pm 17.1 10.7 8.5 57 4.4 SW 32 44 17 24 1011.9 1011.9 0.0
15/01:30pm 17.2 11.9 9.9 62 3.9 SW 28 39 15 21 1011.8 1011.8 0.0
15/01:00pm 17.3 12.0 10.0 62 3.9 SW 28 44 15 24 1011.7 1011.7 0.0
15/12:30pm 15.7 10.1 10.0 69 3.0 SW 30 39 16 21 1011.7 1011.7 0.0
15/12:00pm 16.3 12.2 11.5 73 2.6 SW 24 39 13 21 1011.5 1011.5 0.0
15/11:30am 16.2 11.2 9.6 65 3.4 SSW 26 35 14 19 1011.6 1011.6 0.0
15/11:00am 15.3 10.6 9.2 67 3.1 SSW 24 33 13 18 1011.7 1011.7 0.0
15/10:30am 15.4 11.4 8.9 65 3.3 SSW 20 30 11 16 1011.6 1011.6 0.0
15/10:00am 14.7 10.6 8.0 64 3.4 S 19 28 10 15 1011.3 1011.3 0.0
15/09:30am 13.7 9.1 8.3 70 2.7 S 22 30 12 16 1010.8 1010.8 0.0
15/09:00am 12.9 9.4 8.8 76 2.1 SSE 17 24 9 13 1010.2 1010.2 11.4
15/08:30am 12.3 9.2 9.0 80 1.7 SE 15 20 8 11 1009.1 1009.0 11.4
15/08:00am 12.0 9.6 9.9 87 1.1 S 13 19 7 10 1008.2 1008.1 11.4
15/07:30am 11.5 10.0 10.7 95 0.4 SSE 9 15 5 8 1007.1 1007.0 11.4
15/07:00am 11.3 9.4 10.5 95 0.4 ESE 11 17 6 9 1005.8 1005.7 11.4
15/06:30am 11.8 10.9 11.3 97 0.3 SSW 7 13 4 7 1004.9 1004.8 11.2
15/06:00am 11.5 9.4 11.0 97 0.3 WSW 13 20 7 11 1004.5 1004.4 11.0
15/05:30am 11.4 8.4 10.5 94 0.5 WSW 17 26 9 14 1004.2 1004.1 10.8
15/05:00am 11.3 8.6 10.2 93 0.6 SW 15 22 8 12 1004.0 1003.9 10.8
15/04:30am 11.1 7.6 10.2 94 0.5 SSW 19 24 10 13 1003.7 1003.6 10.8
15/04:00am 11.9 7.6 10.8 93 0.6 WSW 24 33 13 18 1003.3 1003.2 9.6
15/03:30am 11.9 7.9 10.3 90 0.8 WSW 22 32 12 17 1003.4 1003.3 9.6
15/03:00am 12.3 7.5 10.2 87 1.1 WSW 26 39 14 21 1003.3 1003.2 9.6
15/02:30am 11.9 6.4 10.6 92 0.7 WSW 30 41 16 22 1003.3 1003.2 9.4
15/02:08am 12.5 7.5 10.9 90 0.8 WSW 28 50 15 27 1003.3 1003.2 9.4
15/02:00am 12.5 7.5 11.1 91 0.7 WSW 28 39 15 21 1003.3 1003.2 9.4
15/01:35am 12.3 6.7 11.5 95 0.4 WSW 32 50 17 27 1003.3 1003.2 9.4
15/01:30am 12.1 6.3 11.5 96 0.3 WSW 33 46 18 25 1003.3 1003.2 9.4
15/01:17am 11.9 5.4 11.6 98 0.2 W 37 56 20 30 1003.1 1003.0 9.2
15/01:08am 11.0 6.3 10.8 99 0.1 NW 26 54 14 29 1003.0 1002.9 9.0
15/01:00am 9.6 5.8 9.1 97 0.2 N 19 26 10 14 1003.2 1003.1 8.8
15/12:30am 9.9 6.5 9.3 96 0.3 NNW 17 20 9 11 1004.2 1004.1 4.4
15/12:00am 10.4 7.0 9.3 93 0.6 W 17 26 9 14 1005.2 1005.1 2.2
 
Date/Time
CDT
Temp
°C
App
Temp
°C
Dew
Point
°C
Rel
Hum
%
Delta-T
°C
Wind Press
QNH
hPa
Press
MSL
hPa
Rain since
9am
mm
Dir  Spd
km/h
Gust
km/h
Spd
kts
Gust
kts
14/11:30pm 11.0 7.1 9.4 90 0.8 W 20 26 11 14 1005.9 1005.8 1.0
14/11:00pm 12.0 8.4 8.5 79 1.7 W 17 22 9 12 1005.9 1005.8 0.2
14/10:30pm 12.1 9.1 7.8 75 2.1 SW 13 17 7 9 1006.1 1006.0 0.2
14/10:00pm 11.9 9.4 8.0 77 1.9 SW 11 15 6 8 1006.4 1006.3 0.2
14/09:30pm 11.8 8.6 8.5 80 1.6 SW 15 22 8 12 1006.2 1006.1 0.2
14/09:00pm 11.4 8.6 8.4 82 1.5 SW 13 17 7 9 1006.0 1005.9 0.2
14/08:30pm 11.3 8.5 8.7 84 1.3 SW 13 20 7 11 1005.7 1005.6 0.2
14/08:00pm 12.4 8.9 8.7 78 1.8 SW 17 24 9 13 1005.2 1005.1 0.2
14/07:30pm 13.3 8.7 8.0 70 2.6 SW 22 33 12 18 1004.7 1004.6 0.2
14/07:00pm 13.7 8.6 7.7 67 3.0 SW 24 35 13 19 1004.3 1004.2 0.2
14/06:30pm 14.7 9.2 7.7 63 3.5 SW 26 35 14 19 1003.7 1003.6 0.2
14/06:00pm 14.6 9.3 8.3 66 3.2 SW 26 37 14 20 1003.2 1003.1 0.2
14/05:30pm 15.3 10.2 7.6 60 3.9 SW 24 32 13 17 1002.8 1002.7 0.2
14/05:00pm 14.3 10.2 8.7 69 2.8 SSW 20 28 11 15 1002.6 1002.5 0.2
14/04:30pm 14.8 9.9 8.3 65 3.3 SSW 24 32 13 17 1002.4 1002.3 0.2
14/04:00pm 12.9 8.5 9.0 77 2.0 SSW 22 30 12 16 1002.4 1002.3 0.2
14/03:30pm 15.6 10.2 7.9 60 3.9 SSW 26 35 14 19 1002.1 1002.0 0.2
14/03:00pm 15.9 12.5 5.8 51 4.9 S 13 24 7 13 1001.8 1001.7 0.2
14/02:30pm 15.8 13.1 7.3 57 4.2 S 11 19 6 10 1002.0 1001.9 0.2
14/02:00pm 14.6 12.2 5.1 53 4.5 E 7 13 4 7 1002.0 1001.9 0.2
14/01:30pm 16.6 14.9 6.1 50 5.2 NE 4 9 2 5 1001.8 1001.7 0.2
14/01:00pm 15.3 14.1 6.3 55 4.4 W 2 7 1 4 1001.8 1001.7 0.2
14/12:30pm 14.4 12.2 6.0 57 4.0 N 7 11 4 6 1001.8 1001.7 0.2
14/12:00pm 14.6 12.5 8.3 66 3.2 NNE 9 15 5 8 1002.0 1001.9 0.2
14/11:30am 13.8 11.5 7.3 65 3.2 NE 9 15 5 8 1002.1 1002.0 0.2
14/11:00am 12.8 9.5 7.9 72 2.4 NE 15 20 8 11 1002.2 1002.1 0.2
14/10:30am 11.7 7.8 8.7 82 1.5 ENE 19 24 10 13 1002.3 1002.2 0.2
14/10:00am 11.5 7.7 9.1 85 1.2 ENE 19 26 10 14 1002.3 1002.2 0.2
14/09:30am 10.6 7.9 8.9 89 0.8 ENE 13 17 7 9 1002.4 1002.3 0.2
14/09:00am 10.2 8.3 9.0 92 0.6 ESE 9 13 5 7 1002.3 1002.2 5.6
14/08:30am 9.3 7.3 8.5 95 0.4 E 9 11 5 6 1002.2 1002.1 5.4
14/08:00am 8.9 6.0 8.1 95 0.4 NE 13 19 7 10 1002.2 1002.1 4.4
14/07:30am 9.1 5.4 7.9 92 0.6 ENE 17 24 9 13 1001.7 1001.6 3.4
14/07:00am 8.8 5.4 7.7 93 0.5 ENE 15 20 8 11 1001.4 1001.3 3.2
14/06:30am 8.7 5.7 7.9 95 0.4 ENE 13 15 7 8 1001.3 1001.2 3.0
14/06:00am 8.5 5.9 7.7 95 0.4 ENE 11 15 6 8 1001.4 1001.3 2.6
14/05:30am 8.5 5.9 7.7 95 0.4 ENE 11 13 6 7 1001.4 1001.3 2.0
14/05:00am 8.4 5.7 7.5 94 0.4 NNE 11 13 6 7 1001.6 1001.5 1.6
14/04:30am 8.5 5.7 7.1 91 0.7 NNE 11 17 6 9 1001.7 1001.6 1.0
14/04:00am 8.7 5.5 7.0 89 0.8 NE 13 17 7 9 1001.8 1001.7 0.4
14/03:30am 8.9 5.0 7.0 88 0.9 NNE 17 22 9 12 1002.4 1002.3 0.2
14/03:00am 8.3 4.2 6.4 88 0.9 NNE 17 20 9 11 1002.4 1002.3 0.2
14/02:30am 8.5 4.0 6.3 86 1.0 NNE 19 24 10 13 1002.9 1002.8 0.2
14/02:00am 9.3 5.2 6.0 80 1.5 N 17 22 9 12 1003.6 1003.5 0.2
14/01:30am 8.8 4.9 5.5 80 1.5 NNE 15 20 8 11 1003.8 1003.7 0.2
14/01:00am 8.4 4.2 5.5 82 1.3 NNE 17 20 9 11 1004.3 1004.2 0.2
14/12:30am 7.5 4.1 5.8 89 0.8 NE 13 15 7 8 1004.4 1004.3 0.2
14/12:00am 8.0 4.2 5.8 86 1.0 NE 15 17 8 9 1004.7 1004.6 0.2
 
Date/Time
CDT
Temp
°C
App
Temp
°C
Dew
Point
°C
Rel
Hum
%
Delta-T
°C
Wind Press
QNH
hPa
Press
MSL
hPa
Rain since
9am
mm
Dir  Spd
km/h
Gust
km/h
Spd
kts
Gust
kts
13/11:30pm 8.0 4.1 5.5 84 1.1 NE 15 17 8 9 1005.2 1005.1 0.2
13/11:00pm 7.2 3.3 5.5 89 0.8 NE 15 17 8 9 1005.4 1005.3 0.2
13/10:30pm 6.9 3.0 5.4 90 0.7 NNE 15 17 8 9 1005.6 1005.5 0.2
13/10:00pm 7.2 3.7 5.5 89 0.8 N 13 17 7 9 1005.9 1005.8 0.2
13/09:30pm 6.0 1.9 4.6 91 0.6 N 15 15 8 8 1006.0 1005.9 0.2
13/09:00pm 5.4 1.7 4.2 92 0.5 NNE 13 13 7 7 1005.9 1005.8 0.2
13/08:30pm 5.9 2.5 4.2 89 0.7 N 11 13 6 7 1005.9 1005.8 0.2
13/08:00pm 7.1 4.3 5.1 87 0.9 NNW 9 11 5 6 1005.9 1005.8 0.2
13/07:30pm 9.5 6.4 5.5 76 1.8 NW 11 13 6 7 1005.9 1005.8 0.2
13/07:00pm 12.3 7.9 4.5 59 3.6 WNW 17 20 9 11 1006.0 1005.9 0.2
13/06:30pm 14.1 8.4 4.9 54 4.3 WNW 24 33 13 18 1005.8 1005.7 0.2
13/06:00pm 14.4 7.9 4.7 52 4.5 W 28 39 15 21 1005.6 1005.5 0.2
13/05:30pm 16.3 9.3 6.2 51 4.9 W 32 43 17 23 1005.2 1005.1 0.2
13/05:00pm 16.5 9.4 5.5 48 5.3 W 32 44 17 24 1005.0 1004.9 0.2
13/04:30pm 17.2 9.1 3.1 39 6.5 W 35 50 19 27 1004.9 1004.8 0.2
13/04:04pm 15.8 8.2 2.6 41 6.0 WNW 32 52 17 28 1005.0 1004.9 0.2
13/04:00pm 16.0 8.9 3.8 44 5.7 W 30 43 16 23 1004.9 1004.8 0.2
13/03:30pm 16.3 9.7 4.4 45 5.6 WNW 28 41 15 22 1005.1 1005.0 0.2
13/03:00pm 16.7 8.8 4.1 43 5.9 WNW 35 50 19 27 1005.1 1005.0 0.2
13/02:41pm 16.7 8.6 3.1 40 6.2 WNW 35 56 19 30 1005.1 1005.0 0.2
13/02:30pm 15.7 7.8 4.1 46 5.4 WNW 35 48 19 26 1005.1 1005.0 0.2
13/02:13pm 16.0 8.5 4.7 47 5.3 WNW 33 52 18 28 1005.1 1005.0 0.2
13/02:00pm 17.3 9.2 3.2 39 6.5 WNW 35 48 19 26 1005.3 1005.2 0.2
13/01:30pm 16.2 8.7 3.6 43 5.8 WNW 32 48 17 26 1005.6 1005.5 0.0
13/01:19pm 16.1 8.5 2.9 41 6.0 WNW 32 54 17 29 1005.7 1005.6 0.0
13/01:00pm 15.8 8.3 3.3 43 5.7 WNW 32 44 17 24 1005.8 1005.7 0.0
13/12:30pm 15.9 9.7 6.1 52 4.8 WNW 28 43 15 23 1006.0 1005.9 0.0
13/12:00pm 14.7 6.9 5.0 52 4.6 WNW 35 44 19 24 1006.2 1006.1 0.0
13/11:30am 15.8 8.7 5.7 51 4.9 WNW 32 46 17 25 1006.4 1006.3 0.0
13/11:00am 12.7 6.6 6.5 66 3.0 WNW 28 37 15 20 1006.5 1006.4 0.0
13/10:30am 13.8 8.4 8.0 68 2.9 WNW 26 35 14 19 1006.7 1006.6 0.0
13/10:00am 13.4 8.4 8.0 70 2.7 NW 24 35 13 19 1006.8 1006.7 0.0
13/09:30am 12.3 6.7 8.6 78 1.9 WNW 28 39 15 21 1006.7 1006.6 0.0
13/09:00am 10.7 5.9 8.8 88 0.9 NW 24 37 13 20 1006.8 1006.7 1.6
13/08:30am 11.2 7.5 10.0 92 0.6 NNW 20 30 11 16 1006.7 1006.6 1.4

Latest Capital City Observations: Canberra | Sydney | Melbourne | Brisbane | Adelaide | Perth | Hobart | Darwin

Other formats

Comma delimited format used in spreadsheet applications
http://www.bom.gov.au/fwo/IDS60901/IDS60901.95671.axf

JavaScript Object Notation format (JSON) in row-major order
http://www.bom.gov.au/fwo/IDS60901/IDS60901.95671.json

Data quality

Most of these data are generated automatically and are frequently updated. Quality checks on data are not normally performed. It is possible for incorrect values to appear. Refer to information at About Latest Weather Observations and please check the disclaimer before using these data.